createdAt,value
2022-12-18T00:00:45.342Z,95749.78
2022-12-18T00:03:11.983Z,95745.19
2022-12-18T00:05:38.661Z,95746.47
2022-12-18T00:08:09.338Z,95747.88
2022-12-18T00:10:36.206Z,95741.38
2022-12-18T00:13:05.281Z,95740.91
2022-12-18T00:15:35.119Z,95743.75
2022-12-18T00:18:03.610Z,95738.16
2022-12-18T00:20:30.359Z,95732.09
2022-12-18T00:22:56.965Z,95730.03
2022-12-18T00:25:23.626Z,95743.56
2022-12-18T00:27:50.576Z,95738.50
2022-12-18T00:30:17.472Z,95736.72
2022-12-18T00:32:44.080Z,95744.22
2022-12-18T00:35:12.159Z,95749.69
2022-12-18T00:37:38.747Z,95759.28
2022-12-18T00:40:06.403Z,95749.28
2022-12-18T00:42:51.541Z,95758.59
2022-12-18T00:45:18.326Z,95756.69
2022-12-18T00:47:44.928Z,95759.13
2022-12-18T00:50:12.847Z,95766.69
2022-12-18T00:52:39.434Z,95767.63
2022-12-18T00:55:06.825Z,95769.81
2022-12-18T00:57:33.418Z,95769.91
2022-12-18T00:59:59.932Z,95765.28
2022-12-18T01:02:26.588Z,95761.28
2022-12-18T01:04:53.318Z,95767.16
2022-12-18T01:07:21.227Z,95776.56
2022-12-18T01:09:47.768Z,95774.09
2022-12-18T01:12:14.296Z,95779.16
2022-12-18T01:14:40.851Z,95793.13
2022-12-18T01:17:07.413Z,95800.50
2022-12-18T01:19:34.162Z,95798.16
2022-12-18T01:22:00.821Z,95801.03
2022-12-18T01:24:28.705Z,95815.81
2022-12-18T01:26:55.256Z,95805.16
2022-12-18T01:29:21.787Z,95813.84
2022-12-18T01:31:48.350Z,95826.22
2022-12-18T01:34:15.171Z,95829.44
2022-12-18T01:36:41.700Z,95832.75
2022-12-18T01:39:11.620Z,95826.47
2022-12-18T01:41:58.706Z,95840.22
2022-12-18T01:45:07.855Z,95832.22
2022-12-18T01:47:39.308Z,95820.66
2022-12-18T01:50:11.265Z,95824.78
2022-12-18T01:52:39.312Z,95832.34
2022-12-18T01:55:07.848Z,95837.53
2022-12-18T01:57:36.588Z,95834.88
2022-12-18T02:00:06.932Z,95828.63
2022-12-18T02:02:33.838Z,95822.59
2022-12-18T02:05:01.194Z,95822.72
2022-12-18T02:07:36.958Z,95816.81
2022-12-18T02:10:10.668Z,95822.78
2022-12-18T02:12:45.978Z,95822.50
2022-12-18T02:15:19.537Z,95825.41
2022-12-18T02:17:51.056Z,95821.56
2022-12-18T02:20:20.914Z,95823.44
2022-12-18T02:23:01.888Z,95819.91
2022-12-18T02:25:46.953Z,95830.44
2022-12-18T02:28:17.841Z,95834.41
2022-12-18T02:30:49.078Z,95845.31
2022-12-18T02:33:16.772Z,95823.56
2022-12-18T02:35:45.748Z,95829.41
2022-12-18T02:38:14.658Z,95833.28
2022-12-18T02:40:42.933Z,95827.81
2022-12-18T02:43:11.036Z,95822.31
2022-12-18T02:45:48.826Z,95827.59
2022-12-18T02:48:16.188Z,95828.53
2022-12-18T02:50:52.337Z,95834.25
2022-12-18T02:53:25.596Z,95828.72
2022-12-18T02:55:59.587Z,95829.69
2022-12-18T02:58:35.255Z,95831.91
2022-12-18T03:01:10.808Z,95846.16
2022-12-18T03:03:42.355Z,95829.75
2022-12-18T03:06:14.596Z,95831.13
2022-12-18T03:08:45.994Z,95834.19
2022-12-18T03:11:14.192Z,95839.25
2022-12-18T03:13:46.034Z,95829.16
2022-12-18T03:16:18.835Z,95821.47
2022-12-18T03:18:50.306Z,95820.41
2022-12-18T03:21:22.128Z,95819.44
2022-12-18T03:23:52.302Z,95818.22
2022-12-18T03:26:22.463Z,95814.09
2022-12-18T03:28:53.768Z,95811.78
2022-12-18T03:31:24.039Z,95806.72
2022-12-18T03:33:53.922Z,95809.72
2022-12-18T03:36:20.380Z,95816.94
2022-12-18T03:38:47.065Z,95828.22
2022-12-18T03:41:20.696Z,95826.88
2022-12-18T03:43:52.020Z,95812.81
2022-12-18T03:46:28.099Z,95806.69
2022-12-18T03:49:02.179Z,95817.84
2022-12-18T03:51:35.701Z,95803.03
2022-12-18T03:54:05.256Z,95799.75
2022-12-18T03:56:36.301Z,95796.88
2022-12-18T03:59:05.481Z,95803.84
2022-12-18T04:01:36.984Z,95803.59
2022-12-18T04:04:05.947Z,95821.50
2022-12-18T04:06:33.099Z,95819.03
2022-12-18T04:09:00.028Z,95824.34
2022-12-18T04:11:26.893Z,95832.16
2022-12-18T04:13:58.407Z,95823.56
2022-12-18T04:16:25.074Z,95821.34
2022-12-18T04:18:53.362Z,95833.41
2022-12-18T04:21:20.310Z,95835.84
2022-12-18T04:23:47.006Z,95832.16
2022-12-18T04:26:13.597Z,95835.56
2022-12-18T04:28:40.131Z,95832.84
2022-12-18T04:31:06.792Z,95838.84
2022-12-18T04:33:33.477Z,95838.28
2022-12-18T04:36:01.352Z,95838.28
2022-12-18T04:38:27.905Z,95831.84
2022-12-18T04:40:54.442Z,95837.06
2022-12-18T04:43:21.056Z,95828.56
2022-12-18T04:45:47.652Z,95827.06
2022-12-18T04:48:14.348Z,95828.03
2022-12-18T04:50:40.890Z,95835.03
2022-12-18T04:53:08.938Z,95839.69
2022-12-18T04:55:36.588Z,95843.94
2022-12-18T04:58:03.165Z,95842.41
2022-12-18T05:00:29.854Z,95844.16
2022-12-18T05:02:56.486Z,95854.84
2022-12-18T05:05:23.256Z,95865.97
2022-12-18T05:07:50.052Z,95862.66
2022-12-18T05:10:18.033Z,95881.13
2022-12-18T05:13:01.266Z,95869.22
2022-12-18T05:15:29.551Z,95864.84
2022-12-18T05:17:56.853Z,95879.06
2022-12-18T05:20:23.480Z,95877.16
2022-12-18T05:22:50.867Z,95881.53
2022-12-18T05:25:19.319Z,95871.41
2022-12-18T05:27:46.529Z,95885.38
2022-12-18T05:30:16.983Z,95880.03
2022-12-18T05:32:44.070Z,95897.28
2022-12-18T05:35:11.789Z,95898.09
2022-12-18T05:37:42.929Z,95904.25
2022-12-18T05:40:11.345Z,95903.97
2022-12-18T05:42:39.537Z,95914.94
2022-12-18T05:45:07.283Z,95915.63
2022-12-18T05:47:33.852Z,95918.22
2022-12-18T05:50:00.415Z,95913.97
2022-12-18T05:52:26.994Z,95910.41
2022-12-18T05:54:53.545Z,95919.03
2022-12-18T05:57:20.164Z,95915.63
2022-12-18T05:59:48.084Z,95917.53
2022-12-18T06:02:14.783Z,95922.03
2022-12-18T06:04:41.467Z,95926.69
2022-12-18T06:07:08.140Z,95925.06
2022-12-18T06:09:34.744Z,95921.78
2022-12-18T06:12:01.304Z,95927.78
2022-12-18T06:14:28.131Z,95926.97
2022-12-18T06:16:56.088Z,95915.56
2022-12-18T06:19:22.689Z,95922.31
2022-12-18T06:21:50.209Z,95918.22
2022-12-18T06:24:17.116Z,95918.63
2022-12-18T06:26:43.726Z,95919.59
2022-12-18T06:29:10.410Z,95914.38
2022-12-18T06:31:37.038Z,95914.53
2022-12-18T06:34:05.697Z,95923.69
2022-12-18T06:36:32.663Z,95914.38
2022-12-18T06:38:59.494Z,95908.50
2022-12-18T06:41:26.348Z,95914.63
2022-12-18T06:43:58.153Z,95916.56
2022-12-18T06:46:26.561Z,95916.03
2022-12-18T06:48:53.705Z,95913.97
2022-12-18T06:51:23.356Z,95927.38
2022-12-18T06:53:50.735Z,95926.97
2022-12-18T06:56:17.500Z,95929.84
2022-12-18T06:58:44.576Z,95929.72
2022-12-18T07:01:12.500Z,95932.44
2022-12-18T07:03:40.246Z,95938.47
2022-12-18T07:06:07.714Z,95949.69
2022-12-18T07:08:35.649Z,95956.78
2022-12-18T07:11:05.288Z,95951.59
2022-12-18T07:13:31.912Z,95963.78
2022-12-18T07:16:06.794Z,95963.78
2022-12-18T07:18:35.318Z,95975.13
2022-12-18T07:21:04.552Z,95981.09
2022-12-18T07:23:32.774Z,95985.03
2022-12-18T07:26:03.801Z,95991.53
2022-12-18T07:28:30.344Z,95984.28
2022-12-18T07:30:56.903Z,95990.03
2022-12-18T07:33:23.508Z,95988.38
2022-12-18T07:35:50.042Z,95984.84
2022-12-18T07:38:16.598Z,95989.91
2022-12-18T07:40:43.142Z,95985.38
2022-12-18T07:43:11.030Z,95977.59
2022-12-18T07:45:37.607Z,95987.16
2022-12-18T07:48:04.469Z,95975.38
2022-12-18T07:50:31.003Z,95986.75
2022-12-18T07:52:57.607Z,95984.97
2022-12-18T07:55:24.143Z,95986.44
2022-12-18T07:57:52.676Z,96009.03
2022-12-18T08:00:22.401Z,96011.78
2022-12-18T08:02:49.018Z,96005.00
2022-12-18T08:05:15.919Z,96013.81
2022-12-18T08:07:42.477Z,96018.31
2022-12-18T08:10:09.634Z,96008.44
2022-12-18T08:12:36.254Z,95997.81
2022-12-18T08:15:02.818Z,95995.75
2022-12-18T08:17:31.001Z,96009.94
2022-12-18T08:19:57.530Z,96003.69
2022-12-18T08:22:24.132Z,95998.47
2022-12-18T08:24:50.881Z,96004.81
2022-12-18T08:27:32.747Z,96023.34
2022-12-18T08:29:59.681Z,96011.31
2022-12-18T08:32:26.285Z,96018.31
2022-12-18T08:34:54.523Z,96025.59
2022-12-18T08:37:21.090Z,96020.28
2022-12-18T08:39:47.663Z,96019.75
2022-12-18T08:42:32.920Z,96016.19
2022-12-18T08:44:59.642Z,96019.34
2022-12-18T08:47:27.003Z,96014.03
2022-12-18T08:49:54.909Z,96007.53
2022-12-18T08:52:21.492Z,96013.94
2022-12-18T08:54:48.048Z,96006.56
2022-12-18T08:57:14.680Z,96011.38
2022-12-18T08:59:41.295Z,96010.56
2022-12-18T09:02:09.446Z,96018.34
2022-12-18T09:04:36.138Z,96030.38
2022-12-18T09:07:04.062Z,96027.66
2022-12-18T09:09:30.668Z,96024.56
2022-12-18T09:11:57.223Z,96024.53
2022-12-18T09:14:23.782Z,96031.59
2022-12-18T09:16:50.401Z,96037.22
2022-12-18T09:19:17.322Z,96030.28
2022-12-18T09:21:48.099Z,96033.91
2022-12-18T09:24:17.387Z,96023.75
2022-12-18T09:26:46.991Z,96021.53
2022-12-18T09:29:14.247Z,96016.38
2022-12-18T09:31:41.527Z,96017.59
2022-12-18T09:34:08.332Z,96014.88
2022-12-18T09:36:34.929Z,96012.47
2022-12-18T09:39:05.118Z,96022.66
2022-12-18T09:41:45.466Z,96026.06
2022-12-18T09:44:19.318Z,96026.88
2022-12-18T09:46:49.593Z,96028.53
2022-12-18T09:49:19.936Z,96032.66
2022-12-18T09:51:52.098Z,96028.31
2022-12-18T09:54:23.876Z,96030.25
2022-12-18T09:56:51.967Z,96021.91
2022-12-18T09:59:24.604Z,96020.91
2022-12-18T10:01:51.392Z,96011.59
2022-12-18T10:04:18.137Z,96013.56
2022-12-18T10:06:51.114Z,96007.03
2022-12-18T10:09:37.835Z,96015.69
2022-12-18T10:12:15.067Z,96008.59
2022-12-18T10:14:50.848Z,96018.84
2022-12-18T10:17:26.205Z,96014.13
2022-12-18T10:19:55.855Z,96016.19
2022-12-18T10:22:32.877Z,96020.88
2022-12-18T10:25:05.623Z,96011.88
2022-12-18T10:27:35.422Z,96011.06
2022-12-18T10:30:05.278Z,96010.09
2022-12-18T10:32:33.958Z,96006.41
2022-12-18T10:35:01.228Z,96001.91
2022-12-18T10:37:29.920Z,96001.78
2022-12-18T10:40:10.175Z,95995.06
2022-12-18T10:42:38.382Z,95994.81
2022-12-18T10:45:10.824Z,95982.72
2022-12-18T10:47:42.556Z,95985.31
2022-12-18T10:50:21.504Z,95980.84
2022-12-18T10:52:55.693Z,95984.81
2022-12-18T10:55:23.472Z,95979.63
2022-12-18T10:57:52.024Z,95979.34
2022-12-18T11:00:25.604Z,95979.50
2022-12-18T11:02:53.357Z,95985.25
2022-12-18T11:05:30.059Z,95978.13
2022-12-18T11:07:57.619Z,95977.72
2022-12-18T11:10:29.546Z,95975.78
2022-12-18T11:13:11.028Z,95982.22
2022-12-18T11:15:38.088Z,95982.91
2022-12-18T11:18:05.118Z,95987.16
2022-12-18T11:20:35.448Z,95991.25
2022-12-18T11:23:04.809Z,95990.00
2022-12-18T11:25:34.677Z,95987.16
2022-12-18T11:28:05.809Z,95987.03
2022-12-18T11:30:34.378Z,95992.22
2022-12-18T11:33:06.380Z,95984.84
2022-12-18T11:35:46.590Z,95967.50
2022-12-18T11:38:22.062Z,95967.34
2022-12-18T11:40:55.737Z,95962.97
2022-12-18T11:43:30.041Z,95961.06
2022-12-18T11:46:02.723Z,95964.88
2022-12-18T11:48:34.173Z,95967.50
2022-12-18T11:51:06.003Z,95966.50
2022-12-18T11:53:32.709Z,95975.81
2022-12-18T11:56:18.374Z,95966.78
2022-12-18T11:58:50.555Z,95974.44
2022-12-18T12:01:29.894Z,95957.75
2022-12-18T12:04:45.209Z,95962.44
2022-12-18T12:07:24.969Z,95951.63
2022-12-18T12:10:01.780Z,95958.81
2022-12-18T12:12:50.172Z,95966.91
2022-12-18T12:15:33.198Z,95957.16
2022-12-18T12:18:11.264Z,95955.81
2022-12-18T12:20:50.510Z,95958.38
2022-12-18T12:23:27.981Z,95960.53
2022-12-18T12:26:01.153Z,95944.38
2022-12-18T12:28:46.067Z,95943.00
2022-12-18T12:31:27.895Z,95933.44
2022-12-18T12:34:02.194Z,95935.03
2022-12-18T12:36:36.281Z,95922.03
2022-12-18T12:39:08.498Z,95923.81
2022-12-18T12:41:57.838Z,95922.31
2022-12-18T12:44:29.011Z,95920.25
2022-12-18T12:47:01.453Z,95919.28
2022-12-18T12:49:35.240Z,95920.44
2022-12-18T12:52:11.908Z,95915.06
2022-12-18T12:54:39.459Z,95918.63
2022-12-18T12:57:10.460Z,95923.66
2022-12-18T12:59:46.950Z,95940.16
2022-12-18T13:02:23.323Z,95939.63
2022-12-18T13:04:56.909Z,95931.59
2022-12-18T13:07:29.585Z,95933.31
2022-12-18T13:10:27.561Z,95942.03
2022-12-18T13:12:57.841Z,95939.31
2022-12-18T13:15:31.446Z,95938.56
2022-12-18T13:18:21.369Z,95939.25
2022-12-18T13:20:55.357Z,95945.97
2022-12-18T13:23:34.163Z,95950.22
2022-12-18T13:26:28.139Z,95954.44
2022-12-18T13:28:58.257Z,95948.16
2022-12-18T13:32:07.822Z,95942.97
2022-12-18T13:34:36.551Z,95948.72
2022-12-18T13:37:41.920Z,95955.69
2022-12-18T13:40:53.522Z,95949.41
2022-12-18T13:43:27.951Z,95952.84
2022-12-18T13:46:06.678Z,95957.44
2022-12-18T13:48:35.309Z,95956.06
2022-12-18T13:51:06.637Z,95949.09
2022-12-18T13:53:39.560Z,95949.91
2022-12-18T13:56:07.148Z,95948.00
2022-12-18T13:58:34.275Z,95952.94
2022-12-18T14:01:03.030Z,95944.31
2022-12-18T14:03:30.646Z,95949.38
2022-12-18T14:06:01.109Z,95957.19
2022-12-18T14:08:35.046Z,95944.19
2022-12-18T14:11:04.189Z,95947.47
2022-12-18T14:13:35.091Z,95954.56
2022-12-18T14:16:04.431Z,95953.06
2022-12-18T14:18:34.867Z,95957.19
2022-12-18T14:21:03.648Z,95963.06
2022-12-18T14:23:34.822Z,95963.19
2022-12-18T14:26:06.116Z,95960.47
2022-12-18T14:28:33.030Z,95959.63
2022-12-18T14:30:59.788Z,95964.13
2022-12-18T14:33:28.681Z,95961.53
2022-12-18T14:35:58.221Z,95964.00
2022-12-18T14:38:28.789Z,95962.38
2022-12-18T14:40:58.705Z,95963.19
2022-12-18T14:43:25.499Z,95955.25
2022-12-18T14:45:52.675Z,95955.53
2022-12-18T14:48:23.450Z,95955.41
2022-12-18T14:50:59.342Z,95951.03
2022-12-18T14:53:35.219Z,95947.59
2022-12-18T14:56:04.243Z,95954.56
2022-12-18T14:58:31.017Z,95941.59
2022-12-18T15:00:58.099Z,95938.19
2022-12-18T15:03:24.797Z,95940.63
2022-12-18T15:05:52.794Z,95945.00
2022-12-18T15:08:32.478Z,95943.25
2022-12-18T15:10:59.589Z,95938.88
2022-12-18T15:13:27.664Z,95946.38
2022-12-18T15:15:57.053Z,95938.59
2022-12-18T15:18:32.843Z,95932.72
2022-12-18T15:21:07.958Z,95930.81
2022-12-18T15:23:39.007Z,95940.25
2022-12-18T15:26:07.752Z,95948.16
2022-12-18T15:28:40.497Z,95949.81
2022-12-18T15:31:23.722Z,95955.56
2022-12-18T15:34:21.255Z,95955.00
2022-12-18T15:36:47.990Z,95964.56
2022-12-18T15:39:14.765Z,95962.91
2022-12-18T15:41:41.457Z,95969.91
2022-12-18T15:44:26.400Z,95979.31
2022-12-18T15:46:52.950Z,95980.16
2022-12-18T15:49:19.563Z,95976.84
2022-12-18T15:51:49.784Z,95978.03
2022-12-18T15:54:38.978Z,95979.59
2022-12-18T15:57:23.850Z,95970.03
2022-12-18T15:59:53.790Z,95970.41
2022-12-18T16:02:21.743Z,95968.25
2022-12-18T16:04:48.490Z,95965.25
2022-12-18T16:07:21.489Z,95958.28
2022-12-18T16:09:52.210Z,95959.25
2022-12-18T16:12:21.913Z,95966.22
2022-12-18T16:14:48.920Z,95960.31
2022-12-18T16:17:17.209Z,95955.13
2022-12-18T16:19:43.875Z,95948.16
2022-12-18T16:22:21.555Z,95949.81
2022-12-18T16:24:48.795Z,95950.50
2022-12-18T16:27:15.411Z,95948.16
2022-12-18T16:29:42.040Z,95943.78
2022-12-18T16:32:12.825Z,95938.59
2022-12-18T16:34:40.806Z,95932.84
2022-12-18T16:37:09.797Z,95941.47
2022-12-18T16:39:37.857Z,95943.25
2022-12-18T16:42:06.369Z,95934.50
2022-12-18T16:44:33.120Z,95930.81
2022-12-18T16:47:02.683Z,95934.09
2022-12-18T16:49:29.778Z,95924.66
2022-12-18T16:51:57.758Z,95919.59
2022-12-18T16:54:24.983Z,95924.78
2022-12-18T16:56:52.346Z,95929.03
2022-12-18T16:59:19.206Z,95922.88
2022-12-18T17:01:47.218Z,95924.66
2022-12-18T17:04:14.914Z,95920.28
2022-12-18T17:06:43.414Z,95915.22
2022-12-18T17:09:15.152Z,95916.75
2022-12-18T17:11:41.921Z,95920.28
2022-12-18T17:14:10.596Z,95920.28
2022-12-18T17:16:37.264Z,95920.16
2022-12-18T17:19:05.414Z,95923.44
2022-12-18T17:21:32.047Z,95927.00
2022-12-18T17:24:00.399Z,95927.94
2022-12-18T17:26:29.748Z,95933.84
2022-12-18T17:28:57.561Z,95933.84
2022-12-18T17:31:26.832Z,95930.41
2022-12-18T17:33:53.891Z,95927.13
2022-12-18T17:36:21.315Z,95923.72
2022-12-18T17:38:51.255Z,95931.50
2022-12-18T17:41:18.030Z,95935.75
2022-12-18T17:43:51.101Z,95930.53
2022-12-18T17:46:17.707Z,95928.78
2022-12-18T17:48:44.269Z,95918.09
2022-12-18T17:51:11.549Z,95923.69
2022-12-18T17:53:41.815Z,95926.28
2022-12-18T17:56:12.838Z,95928.06
2022-12-18T17:58:40.365Z,95924.50
2022-12-18T18:01:09.038Z,95923.41
2022-12-18T18:03:41.443Z,95922.59
2022-12-18T18:06:08.694Z,95922.59
2022-12-18T18:08:35.925Z,95930.53
2022-12-18T18:11:25.097Z,95928.75
2022-12-18T18:14:00.763Z,95924.50
2022-12-18T18:16:30.067Z,95926.16
2022-12-18T18:18:58.361Z,95924.38
2022-12-18T18:21:25.034Z,95922.59
2022-12-18T18:23:52.424Z,95924.25
2022-12-18T18:26:19.852Z,95922.34
2022-12-18T18:28:46.639Z,95921.66
2022-12-18T18:31:13.489Z,95915.38
2022-12-18T18:33:42.009Z,95914.41
2022-12-18T18:36:11.097Z,95911.69
2022-12-18T18:38:37.955Z,95909.34
2022-12-18T18:41:05.542Z,95911.94
2022-12-18T18:43:32.151Z,95913.84
2022-12-18T18:46:00.972Z,95910.44
2022-12-18T18:48:30.671Z,95918.34
2022-12-18T18:51:02.143Z,95906.19
2022-12-18T18:53:28.639Z,95911.25
2022-12-18T18:56:34.514Z,95912.22
2022-12-18T18:58:44.505Z,95908.66
2022-12-18T19:01:14.196Z,95902.78
2022-12-18T19:03:41.379Z,95902.91
2022-12-18T19:06:14.258Z,95894.16
2022-12-18T19:08:41.340Z,95892.41
2022-12-18T19:11:35.918Z,95885.16
2022-12-18T19:14:04.346Z,95888.03
2022-12-18T19:16:31.785Z,95885.56
2022-12-18T19:19:01.772Z,95888.41
2022-12-18T19:21:34.062Z,95885.41
2022-12-18T19:24:02.630Z,95878.66
2022-12-18T19:26:29.860Z,95871.59
2022-12-18T19:29:01.465Z,95875.16
2022-12-18T19:31:33.347Z,95880.91
2022-12-18T19:34:01.939Z,95876.25
2022-12-18T19:36:31.001Z,95878.72
2022-12-18T19:39:00.104Z,95879.75
2022-12-18T19:41:31.282Z,95876.41
2022-12-18T19:43:59.553Z,95877.78
2022-12-18T19:46:26.196Z,95866.16
2022-12-18T19:48:52.763Z,95871.22
2022-12-18T19:51:21.417Z,95872.72
2022-12-18T19:53:56.460Z,95868.34
2022-12-18T19:56:26.708Z,95865.34
2022-12-18T19:58:53.975Z,95865.09
2022-12-18T20:01:22.528Z,95880.66
2022-12-18T20:03:52.301Z,95877.38
2022-12-18T20:06:24.977Z,95885.72
2022-12-18T20:08:58.001Z,95892.00
2022-12-18T20:11:26.973Z,95889.41
2022-12-18T20:13:53.605Z,95895.03
2022-12-18T20:16:20.503Z,95900.63
2022-12-18T20:18:49.129Z,95887.25
2022-12-18T20:21:16.346Z,95898.03
2022-12-18T20:23:43.312Z,95891.59
2022-12-18T20:26:11.929Z,95889.41
2022-12-18T20:28:39.278Z,95885.72
2022-12-18T20:31:13.863Z,95882.19
2022-12-18T20:33:42.241Z,95881.91
2022-12-18T20:36:13.698Z,95874.41
2022-12-18T20:38:41.565Z,95862.38
2022-12-18T20:41:10.734Z,95865.66
2022-12-18T20:43:39.163Z,95866.47
2022-12-18T20:46:09.093Z,95855.25
2022-12-18T20:48:35.838Z,95861.13
2022-12-18T20:51:05.795Z,95865.38
2022-12-18T20:53:33.097Z,95870.69
2022-12-18T20:55:59.922Z,95867.00
2022-12-18T20:58:26.529Z,95865.66
2022-12-18T21:01:04.840Z,95876.03
2022-12-18T21:03:31.574Z,95875.16
2022-12-18T21:05:58.166Z,95880.94
2022-12-18T21:08:24.990Z,95873.31
2022-12-18T21:10:51.540Z,95871.53
2022-12-18T21:13:20.836Z,95870.56
2022-12-18T21:15:47.540Z,95858.94
2022-12-18T21:18:15.429Z,95856.34
2022-12-18T21:20:42.200Z,95851.84
2022-12-18T21:23:15.720Z,95849.78
2022-12-18T21:25:43.558Z,95844.72
2022-12-18T21:28:10.082Z,95843.78
2022-12-18T21:30:36.909Z,95832.44
2022-12-18T21:33:03.632Z,95829.69
2022-12-18T21:35:32.179Z,95829.81
2022-12-18T21:37:58.891Z,95825.59
2022-12-18T21:40:25.460Z,95823.66
2022-12-18T21:43:11.278Z,95807.25
2022-12-18T21:45:43.912Z,95799.47
2022-12-18T21:48:10.500Z,95797.56
2022-12-18T21:50:38.397Z,95787.97
2022-12-18T21:53:04.916Z,95787.97
2022-12-18T21:55:31.456Z,95788.66
2022-12-18T21:57:58.027Z,95780.75
2022-12-18T22:00:24.863Z,95774.31
2022-12-18T22:03:17.101Z,95772.94
2022-12-18T22:05:39.340Z,95776.22
2022-12-18T22:08:06.671Z,95778.41
2022-12-18T22:10:33.600Z,95790.72
2022-12-18T22:13:00.229Z,95783.34
2022-12-18T22:15:26.788Z,95790.72
2022-12-18T22:17:57.558Z,95788.41
2022-12-18T22:20:27.145Z,95793.44
2022-12-18T22:22:55.052Z,95797.56
2022-12-18T22:25:21.627Z,95801.78
2022-12-18T22:28:08.160Z,95789.75
2022-12-18T22:30:34.801Z,95784.41
2022-12-18T22:33:02.274Z,95782.78
2022-12-18T22:35:28.981Z,95785.38
2022-12-18T22:37:58.377Z,95775.94
2022-12-18T22:40:26.829Z,95781.16
2022-12-18T22:42:53.614Z,95769.38
2022-12-18T22:45:20.506Z,95784.28
2022-12-18T22:47:47.117Z,95785.66
2022-12-18T22:50:14.446Z,95793.19
2022-12-18T22:52:41.065Z,95795.78
2022-12-18T22:55:09.545Z,95794.69
2022-12-18T22:57:36.253Z,95797.41
2022-12-18T23:00:05.168Z,95802.47
2022-12-18T23:02:31.851Z,95800.97
2022-12-18T23:04:58.484Z,95810.25
2022-12-18T23:07:25.041Z,95805.06
2022-12-18T23:09:51.631Z,95805.88
2022-12-18T23:12:27.528Z,95810.25
2022-12-18T23:14:54.288Z,95802.59
2022-12-18T23:17:20.815Z,95806.72
2022-12-18T23:19:49.391Z,95810.13
2022-12-18T23:22:16.246Z,95802.47
2022-12-18T23:24:42.838Z,95794.81
2022-12-18T23:27:11.798Z,95796.44
2022-12-18T23:29:40.529Z,95793.59
2022-12-18T23:32:07.252Z,95780.59
2022-12-18T23:34:33.837Z,95775.66
2022-12-18T23:37:01.071Z,95770.19
2022-12-18T23:39:29.785Z,95759.13
2022-12-18T23:41:56.838Z,95749.69
2022-12-18T23:44:23.548Z,95756.53
2022-12-18T23:46:51.576Z,95761.56
2022-12-18T23:49:18.387Z,95755.56
2022-12-18T23:51:44.970Z,95745.59
2022-12-18T23:54:11.505Z,95745.59
2022-12-18T23:56:38.067Z,95754.88
2022-12-18T23:59:04.722Z,95744.34
